Time;durP1;ratioP1;P1;durP2;ratioP2;P2;SDS_P1;SDS_P2;PMS_P1;PMS_P2;Temp;Humidity;BMP_temperature;BMP_pressure;BME280_temperature;BME280_humidity;BME280_pressure;Samples;Min_cycle;Max_cycle;Signal;HPM_P1;HPM_P2
2022/07/14 00:02:17;;;;;;;5.00;4.60;;;23.40;99.90;;;;;;5027577;28;20475;-88
2022/07/14 00:04:45;;;;;;;9.57;8.87;;;23.40;99.90;;;;;;5017886;28;20961;-87
2022/07/14 00:07:12;;;;;;;6.73;6.33;;;23.40;99.90;;;;;;5048010;28;20472;-88
2022/07/14 00:09:38;;;;;;;6.67;6.27;;;23.40;99.90;;;;;;5025564;28;21008;-89
2022/07/14 00:12:05;;;;;;;9.00;8.50;;;23.30;99.90;;;;;;5028294;28;20456;-90
2022/07/14 00:14:33;;;;;;;10.27;9.57;;;23.30;99.90;;;;;;5034823;28;20481;-88
2022/07/14 00:16:59;;;;;;;9.83;9.33;;;23.30;99.90;;;;;;5027360;28;20481;-88
2022/07/14 00:19:26;;;;;;;22.37;21.40;;;23.30;99.90;;;;;;5035439;28;20461;-89
2022/07/14 00:21:54;;;;;;;15.23;14.60;;;23.30;99.90;;;;;;5026311;28;20467;-88
2022/07/14 00:24:21;;;;;;;17.20;16.17;;;23.30;99.90;;;;;;5030744;28;20451;-87
2022/07/14 00:26:48;;;;;;;23.57;22.23;;;23.20;99.90;;;;;;5044460;28;20968;-88
2022/07/14 00:29:14;;;;;;;17.93;17.23;;;23.20;99.90;;;;;;5034632;28;20485;-90
2022/07/14 00:31:41;;;;;;;27.47;25.83;;;23.20;99.90;;;;;;5033173;28;20481;-88
2022/07/14 00:34:08;;;;;;;27.73;26.63;;;23.20;99.90;;;;;;5037454;28;21011;-88
2022/07/14 00:36:35;;;;;;;18.97;17.90;;;23.20;99.90;;;;;;5015823;28;20473;-88
2022/07/14 00:39:03;;;;;;;19.63;18.70;;;23.20;99.90;;;;;;5036575;28;20959;-90
2022/07/14 00:41:29;;;;;;;32.27;30.83;;;23.10;99.90;;;;;;5037244;28;20541;-87
2022/07/14 00:43:56;;;;;;;159.23;153.57;;;23.10;99.90;;;;;;5045637;28;20457;-89
2022/07/14 00:46:23;;;;;;;53.67;51.43;;;23.10;99.90;;;;;;5023388;28;20470;-88
2022/07/14 00:48:50;;;;;;;64.03;61.73;;;23.10;99.90;;;;;;5014009;28;20447;-88
2022/07/14 00:51:16;;;;;;;41.33;39.70;;;23.10;99.90;;;;;;5032625;28;20821;-89
2022/07/14 00:53:43;;;;;;;38.27;36.73;;;23.10;99.90;;;;;;5035015;28;20992;-88
2022/07/14 00:56:11;;;;;;;53.73;51.73;;;23.00;99.90;;;;;;5026715;28;20491;-90
2022/07/14 00:58:38;;;;;;;236.93;228.27;;;23.00;99.90;;;;;;5012347;28;20471;-90
2022/07/14 01:01:05;;;;;;;174.17;168.33;;;23.00;99.90;;;;;;5026333;28;20459;-85
2022/07/14 01:03:31;;;;;;;12.43;11.53;;;23.00;99.90;;;;;;5025262;28;20875;-87
2022/07/14 01:06:04;;;;;;;41.10;39.00;;;23.00;99.90;;;;;;5034533;28;20447;-88
2022/07/14 01:08:31;;;;;;;3.93;2.27;;;23.00;99.90;;;;;;5031468;28;20488;-88
2022/07/14 01:10:57;;;;;;;3.50;1.90;;;22.90;99.90;;;;;;5024276;28;20457;-85
2022/07/14 01:13:26;;;;;;;6.50;1.77;;;22.90;99.90;;;;;;5032615;28;20451;-88
2022/07/14 01:15:52;;;;;;;3.20;2.03;;;22.90;99.90;;;;;;5028411;28;20458;-89
2022/07/14 01:18:19;;;;;;;5.00;1.60;;;22.90;99.90;;;;;;5015947;28;20475;-88
2022/07/14 01:20:46;;;;;;;3.80;1.80;;;22.90;99.90;;;;;;5038107;28;20439;-87
2022/07/14 01:23:14;;;;;;;9.30;2.33;;;22.90;99.90;;;;;;5029332;28;20461;-88
2022/07/14 01:25:41;;;;;;;4.37;2.67;;;22.80;99.90;;;;;;5036779;28;20454;-88
2022/07/14 01:28:07;;;;;;;4.80;2.30;;;22.80;99.90;;;;;;5019075;28;20463;-88
2022/07/14 01:30:34;;;;;;;4.20;2.40;;;22.80;99.90;;;;;;5023478;28;20489;-89
2022/07/14 01:33:01;;;;;;;5.77;2.07;;;22.80;99.90;;;;;;5019603;28;20456;-90
2022/07/14 01:35:28;;;;;;;3.03;1.40;;;22.70;99.90;;;;;;5036228;28;20482;-87
2022/07/14 01:37:54;;;;;;;150.23;144.87;;;22.70;99.90;;;;;;5026301;28;20462;-89
2022/07/14 01:40:22;;;;;;;222.23;214.80;;;22.70;99.90;;;;;;5025543;28;20472;-89
2022/07/14 01:42:49;;;;;;;196.23;189.43;;;22.70;99.90;;;;;;5022982;28;20455;-87
2022/07/14 01:45:16;;;;;;;256.63;247.60;;;22.70;99.90;;;;;;5020704;28;20462;-89
2022/07/14 01:47:43;;;;;;;231.57;222.73;;;22.70;99.90;;;;;;5029134;28;20451;-89
2022/07/14 01:50:10;;;;;;;163.93;158.27;;;22.60;99.90;;;;;;5025181;28;20974;-89
2022/07/14 01:52:36;;;;;;;98.57;95.00;;;22.60;99.90;;;;;;5041900;28;20453;-89
2022/07/14 01:55:04;;;;;;;155.17;149.83;;;22.60;99.90;;;;;;5026745;28;20500;-90
2022/07/14 01:57:32;;;;;;;150.80;145.10;;;22.60;99.90;;;;;;5039434;28;20469;-90
2022/07/14 01:59:58;;;;;;;141.53;136.63;;;22.60;99.90;;;;;;5015859;28;20454;-88
2022/07/14 02:02:25;;;;;;;42.57;40.83;;;22.60;99.90;;;;;;5025722;28;20486;-89
2022/07/14 02:04:52;;;;;;;55.57;53.07;;;22.60;99.90;;;;;;5025036;28;20465;-90
2022/07/14 02:07:18;;;;;;;96.57;93.20;;;22.60;99.90;;;;;;5034223;28;20518;-89
2022/07/14 02:12:29;;;;;;;237.17;229.17;;;22.50;99.90;;;;;;5049576;28;21035;-90
2022/07/14 02:14:57;;;;;;;182.70;176.43;;;22.50;99.90;;;;;;5045735;28;20477;-89
2022/07/14 02:17:24;;;;;;;152.40;147.10;;;22.50;99.90;;;;;;5030811;28;20569;-89
2022/07/14 02:19:51;;;;;;;191.23;184.43;;;22.50;99.90;;;;;;5015379;28;20451;-89
2022/07/14 02:22:17;;;;;;;169.30;163.20;;;22.50;99.90;;;;;;5036118;28;20478;-88
2022/07/14 02:24:44;;;;;;;158.60;153.00;;;22.50;99.90;;;;;;5021586;28;20459;-89
2022/07/14 02:27:11;;;;;;;93.10;89.80;;;22.40;99.90;;;;;;5046757;28;20429;-87
2022/07/14 02:29:38;;;;;;;44.13;42.47;;;22.40;99.90;;;;;;5029086;28;20977;-89
2022/07/14 02:32:07;;;;;;;18.03;16.90;;;22.40;99.90;;;;;;5033405;28;20488;-88
2022/07/14 02:34:35;;;;;;;25.30;24.03;;;22.40;99.90;;;;;;5033490;28;20849;-88
2022/07/14 02:37:02;;;;;;;26.07;24.80;;;22.40;99.90;;;;;;5032749;28;20461;-81
2022/07/14 02:39:29;;;;;;;26.53;25.47;;;22.30;99.90;;;;;;5031689;28;20466;-81
2022/07/14 02:41:56;;;;;;;28.47;27.27;;;22.30;99.90;;;;;;5042157;28;20470;-82
2022/07/14 02:44:22;;;;;;;28.50;27.23;;;22.30;99.90;;;;;;5046269;28;20438;-81
2022/07/14 02:46:49;;;;;;;40.73;38.83;;;22.30;99.90;;;;;;5031523;28;20985;-83
2022/07/14 02:49:17;;;;;;;51.97;50.03;;;22.30;99.90;;;;;;5030175;28;20950;-82
2022/07/14 02:51:44;;;;;;;72.50;69.90;;;22.20;99.90;;;;;;5024985;28;20537;-81
2022/07/14 02:54:11;;;;;;;102.57;98.47;;;22.20;99.90;;;;;;5029575;28;20492;-84
2022/07/14 02:56:37;;;;;;;159.40;153.87;;;22.20;99.90;;;;;;5046760;28;20468;-85
2022/07/14 02:59:06;;;;;;;235.77;227.43;;;22.20;99.90;;;;;;5030142;28;20451;-85
2022/07/14 03:01:33;;;;;;;308.20;296.97;;;22.20;99.90;;;;;;5023360;28;20495;-85
2022/07/14 03:03:59;;;;;;;222.90;215.10;;;22.20;99.90;;;;;;5023631;28;20463;-85
2022/07/14 03:06:28;;;;;;;184.83;178.47;;;22.10;99.90;;;;;;5018873;28;20526;-84
2022/07/14 03:08:54;;;;;;;194.50;187.70;;;22.10;99.90;;;;;;5017729;28;21049;-84
2022/07/14 03:11:21;;;;;;;99.10;95.63;;;22.10;99.90;;;;;;5033950;28;20465;-85
2022/07/14 03:13:48;;;;;;;71.97;68.97;;;22.10;99.90;;;;;;5034891;28;20458;-84
2022/07/14 03:16:15;;;;;;;19.77;18.77;;;22.10;99.90;;;;;;5043217;28;20474;-84
2022/07/14 03:18:42;;;;;;;13.80;12.80;;;22.10;99.90;;;;;;5041746;28;20465;-84
2022/07/14 03:21:10;;;;;;;6.57;5.97;;;22.00;99.90;;;;;;5036600;28;20459;-85
2022/07/14 03:23:38;;;;;;;20.00;19.10;;;22.00;99.90;;;;;;5017323;28;20456;-84
2022/07/14 03:26:06;;;;;;;10.17;9.50;;;22.00;99.90;;;;;;5033246;28;21058;-85
2022/07/14 03:28:33;;;;;;;18.17;17.30;;;22.00;99.90;;;;;;5017016;28;20938;-84
2022/07/14 03:31:00;;;;;;;20.13;18.63;;;22.00;99.90;;;;;;5025316;28;21016;-84
2022/07/14 03:33:27;;;;;;;16.23;15.43;;;22.00;99.90;;;;;;5032255;28;20454;-84
2022/07/14 03:35:54;;;;;;;27.97;26.83;;;21.90;99.90;;;;;;5033847;28;20482;-85
2022/07/14 03:38:20;;;;;;;49.17;47.07;;;21.90;99.90;;;;;;5023568;28;20451;-84
2022/07/14 03:40:49;;;;;;;189.07;182.47;;;21.90;99.90;;;;;;5037990;28;20457;-84
2022/07/14 03:43:16;;;;;;;84.60;81.43;;;21.90;99.90;;;;;;5030598;28;20439;-84
2022/07/14 03:45:43;;;;;;;82.90;79.80;;;21.90;99.90;;;;;;5018390;28;20972;-84
2022/07/14 03:48:10;;;;;;;117.40;113.13;;;21.90;99.90;;;;;;5037193;28;20466;-85
2022/07/14 03:50:37;;;;;;;114.83;110.93;;;21.90;99.90;;;;;;5032452;28;20500;-84
2022/07/14 03:53:04;;;;;;;138.27;133.53;;;21.80;99.90;;;;;;5019378;28;20502;-85
2022/07/14 03:55:32;;;;;;;149.40;144.30;;;21.80;99.90;;;;;;5040525;28;20983;-85
2022/07/14 03:58:01;;;;;;;204.37;197.40;;;21.80;99.90;;;;;;5052858;28;20503;-85
2022/07/14 04:00:28;;;;;;;189.13;182.73;;;21.80;99.90;;;;;;5026573;28;20524;-84
2022/07/14 04:02:55;;;;;;;193.90;187.30;;;21.80;99.90;;;;;;5035070;28;20849;-84
2022/07/14 04:05:22;;;;;;;186.47;180.23;;;21.80;99.90;;;;;;5040487;28;20446;-83
2022/07/14 04:07:49;;;;;;;190.33;183.77;;;21.70;99.90;;;;;;5034961;28;20461;-84
2022/07/14 04:10:16;;;;;;;117.80;113.67;;;21.70;99.90;;;;;;5031413;28;20461;-85
2022/07/14 04:12:43;;;;;;;149.13;143.90;;;21.70;99.90;;;;;;5034683;28;20458;-85
2022/07/14 04:15:11;;;;;;;102.77;99.13;;;21.70;99.90;;;;;;5039175;28;20477;-85
2022/07/14 04:17:38;;;;;;;120.50;116.37;;;21.70;99.90;;;;;;5021048;28;20471;-84
2022/07/14 04:20:06;;;;;;;127.77;123.57;;;21.70;99.90;;;;;;5024768;28;20457;-85
2022/07/14 04:22:33;;;;;;;137.77;133.07;;;21.70;99.90;;;;;;5030558;28;20951;-85
2022/07/14 04:25:00;;;;;;;148.63;143.43;;;21.70;99.90;;;;;;5028363;28;20461;-84
2022/07/14 04:27:27;;;;;;;176.57;170.70;;;21.60;99.90;;;;;;5036846;28;20783;-85
2022/07/14 04:29:54;;;;;;;206.10;199.23;;;21.60;99.90;;;;;;5027798;28;20475;-84
2022/07/14 04:32:22;;;;;;;244.67;236.33;;;21.60;99.90;;;;;;5024436;28;20973;-85
2022/07/14 04:34:48;;;;;;;273.90;264.43;;;21.60;99.90;;;;;;5042232;28;20481;-83
2022/07/14 04:37:15;;;;;;;169.90;164.17;;;21.60;99.90;;;;;;5026159;28;20951;-84
2022/07/14 04:39:42;;;;;;;154.33;148.80;;;21.60;99.90;;;;;;5022406;28;20474;-84
2022/07/14 04:42:08;;;;;;;206.13;199.07;;;21.50;99.90;;;;;;5039292;28;20980;-84
2022/07/14 04:44:35;;;;;;;172.40;166.23;;;21.50;99.90;;;;;;5032851;28;20840;-84
2022/07/14 04:47:02;;;;;;;148.70;143.47;;;21.50;99.90;;;;;;5033837;28;20461;-85
2022/07/14 04:52:14;;;;;;;129.17;124.63;;;21.50;99.90;;;;;;5032603;28;20446;-86
2022/07/14 04:54:42;;;;;;;105.90;102.30;;;21.50;99.90;;;;;;5025037;28;20465;-86
2022/07/14 04:57:08;;;;;;;160.20;154.67;;;21.50;99.90;;;;;;5025151;28;20447;-85
2022/07/14 04:59:35;;;;;;;158.40;152.97;;;21.50;99.90;;;;;;5017381;28;20447;-85
2022/07/14 05:02:02;;;;;;;129.20;124.67;;;21.50;99.90;;;;;;5024678;28;20486;-85
2022/07/14 05:04:30;;;;;;;158.17;152.53;;;21.50;99.90;;;;;;5029501;28;20468;-86
2022/07/14 05:06:57;;;;;;;180.17;173.80;;;21.50;99.90;;;;;;5031706;28;20526;-85
2022/07/14 05:09:25;;;;;;;212.53;205.30;;;21.50;99.90;;;;;;5016843;28;20465;-85
2022/07/14 05:11:53;;;;;;;209.43;202.43;;;21.50;99.90;;;;;;5033140;28;21012;-84
2022/07/14 05:14:20;;;;;;;238.10;229.87;;;21.50;99.90;;;;;;5031007;28;20864;-85
2022/07/14 05:16:48;;;;;;;240.97;232.90;;;21.50;99.90;;;;;;5037164;28;20488;-85
2022/07/14 05:19:15;;;;;;;293.73;283.50;;;21.50;99.90;;;;;;5020491;28;20472;-85
2022/07/14 05:21:44;;;;;;;302.60;292.07;;;21.50;99.90;;;;;;5031991;28;20472;-85
2022/07/14 05:24:12;;;;;;;291.07;280.83;;;21.50;99.90;;;;;;5025514;28;20936;-84
2022/07/14 05:26:39;;;;;;;207.60;200.67;;;21.50;99.90;;;;;;5033133;28;20874;-84
2022/07/14 05:29:06;;;;;;;259.00;250.17;;;21.50;99.90;;;;;;5030899;28;20497;-85
2022/07/14 05:31:33;;;;;;;314.97;303.63;;;21.50;99.90;;;;;;5023295;28;20467;-85
2022/07/14 05:34:00;;;;;;;281.23;271.57;;;21.50;99.90;;;;;;5040655;28;20466;-83
2022/07/14 05:36:27;;;;;;;311.73;300.60;;;21.50;99.90;;;;;;5036827;28;20482;-82
2022/07/14 05:38:55;;;;;;;197.30;190.33;;;21.50;99.90;;;;;;5025339;28;20458;-83
2022/07/14 05:41:22;;;;;;;197.70;191.03;;;21.50;99.90;;;;;;5019771;28;20466;-85
2022/07/14 05:43:49;;;;;;;185.30;179.00;;;21.60;99.90;;;;;;5034037;28;20454;-85
2022/07/14 05:46:16;;;;;;;235.53;227.30;;;21.80;99.90;;;;;;5035485;28;20469;-85
2022/07/14 05:48:43;;;;;;;191.00;184.33;;;22.10;99.90;;;;;;5035265;28;20470;-84
2022/07/14 05:51:12;;;;;;;187.53;180.97;;;22.40;99.90;;;;;;5031345;28;20470;-83
2022/07/14 05:53:40;;;;;;;182.20;175.83;;;22.70;99.90;;;;;;5037897;28;20489;-85
2022/07/14 05:56:10;;;;;;;79.20;76.40;;;22.90;99.90;;;;;;5044379;28;20863;-83
2022/07/14 05:58:37;;;;;;;60.30;57.97;;;23.10;99.90;;;;;;5024015;28;20463;-83
2022/07/14 06:01:05;;;;;;;59.67;57.30;;;23.30;99.90;;;;;;5026548;28;20466;-84
2022/07/14 06:03:31;;;;;;;49.13;47.20;;;23.40;99.90;;;;;;5033574;28;20570;-83
2022/07/14 06:06:00;;;;;;;45.87;44.03;;;23.50;99.90;;;;;;5031958;28;20457;-81
2022/07/14 06:08:26;;;;;;;84.13;81.27;;;23.60;99.90;;;;;;5034808;28;20503;-83
2022/07/14 06:10:55;;;;;;;89.60;86.43;;;23.50;99.90;;;;;;5039551;28;20449;-84
2022/07/14 06:13:24;;;;;;;120.63;116.43;;;23.60;99.90;;;;;;5024834;28;20455;-83
2022/07/14 06:15:50;;;;;;;163.50;157.87;;;23.70;99.90;;;;;;5029822;28;21019;-84
2022/07/14 06:18:17;;;;;;;131.63;126.77;;;23.80;99.90;;;;;;5037209;28;20934;-84
2022/07/14 06:20:44;;;;;;;229.50;221.53;;;23.90;99.90;;;;;;5027815;28;20938;-83
2022/07/14 06:23:11;;;;;;;131.27;126.87;;;24.00;99.90;;;;;;5031401;28;20462;-82
2022/07/14 06:25:38;;;;;;;118.93;114.83;;;24.10;99.90;;;;;;5034491;28;20457;-84
2022/07/14 06:28:06;;;;;;;111.97;108.00;;;24.20;99.90;;;;;;5027800;28;20996;-84
2022/07/14 06:30:34;;;;;;;71.30;68.67;;;24.30;99.90;;;;;;5035321;28;20450;-83
2022/07/14 06:33:01;;;;;;;39.03;37.40;;;24.40;99.90;;;;;;5041968;28;20462;-83
2022/07/14 06:35:28;;;;;;;37.60;36.00;;;24.50;99.90;;;;;;5018717;28;20486;-81
2022/07/14 06:37:56;;;;;;;27.30;26.27;;;24.50;99.90;;;;;;5027772;28;20772;-81
2022/07/14 06:40:23;;;;;;;38.47;36.70;;;24.60;99.90;;;;;;5037850;28;21243;-82
2022/07/14 06:42:51;;;;;;;104.17;100.47;;;24.60;99.90;;;;;;5033512;28;20473;-83
2022/07/14 06:45:17;;;;;;;116.13;112.07;;;24.70;99.90;;;;;;5020830;28;20458;-83
2022/07/14 06:47:45;;;;;;;87.47;84.23;;;24.80;99.90;;;;;;5024684;28;20452;-83
2022/07/14 06:50:12;;;;;;;108.07;104.23;;;24.70;99.90;;;;;;5022198;28;20470;-82
2022/07/14 06:52:39;;;;;;;138.10;133.17;;;24.60;99.90;;;;;;5015755;28;20877;-85
2022/07/14 06:55:07;;;;;;;161.47;155.60;;;24.50;99.90;;;;;;5029422;28;20469;-83
2022/07/14 06:57:34;;;;;;;203.97;196.77;;;24.60;99.90;;;;;;5031169;28;20458;-82
2022/07/14 07:00:01;;;;;;;104.33;100.63;;;24.70;99.90;;;;;;5028289;28;20957;-82
2022/07/14 07:02:28;;;;;;;137.03;132.20;;;24.80;99.90;;;;;;5027248;28;20584;-84
2022/07/14 07:07:40;;;;;;;182.77;176.27;;;25.10;99.90;;;;;;5030066;28;20441;-84
2022/07/14 07:10:07;;;;;;;172.13;166.03;;;25.10;99.90;;;;;;5022707;28;20470;-84
2022/07/14 07:12:34;;;;;;;258.33;249.10;;;25.10;99.90;;;;;;5034316;28;20473;-85
2022/07/14 07:15:01;;;;;;;166.13;160.27;;;25.00;99.90;;;;;;5033536;28;20442;-83
2022/07/14 07:17:28;;;;;;;139.40;134.47;;;24.80;99.90;;;;;;5023217;28;20482;-83
2022/07/14 07:19:56;;;;;;;148.67;143.47;;;24.50;99.90;;;;;;5024457;28;20455;-82
2022/07/14 07:22:22;;;;;;;138.50;133.40;;;24.40;99.90;;;;;;5028169;28;20461;-82
2022/07/14 07:24:49;;;;;;;153.87;147.93;;;24.30;99.90;;;;;;5038679;28;20472;-81
2022/07/14 07:27:16;;;;;;;146.40;140.90;;;24.40;99.90;;;;;;5027737;28;20455;-84
2022/07/14 07:29:43;;;;;;;166.53;160.57;;;24.60;99.90;;;;;;5033287;28;20477;-83
2022/07/14 07:32:11;;;;;;;115.17;111.13;;;24.80;99.90;;;;;;5041612;28;20909;-82
2022/07/14 07:34:38;;;;;;;131.47;126.93;;;25.00;99.90;;;;;;5043003;28;21021;-80
2022/07/14 07:37:06;;;;;;;127.20;122.53;;;25.00;99.90;;;;;;5030216;28;20489;-82
2022/07/14 07:39:34;;;;;;;107.97;103.97;;;25.00;99.90;;;;;;5025800;28;20469;-84
2022/07/14 07:42:01;;;;;;;104.00;100.37;;;25.10;99.90;;;;;;5036963;28;20458;-80
2022/07/14 07:44:30;;;;;;;111.40;107.40;;;25.30;99.90;;;;;;5028858;28;20461;-83
2022/07/14 07:46:57;;;;;;;120.80;116.63;;;25.40;99.90;;;;;;5016844;28;20505;-82
2022/07/14 07:49:24;;;;;;;117.83;113.67;;;25.50;99.90;;;;;;5032078;28;20470;-83
2022/07/14 07:51:58;;;;;;;117.33;112.83;;;25.70;99.90;;;;;;5027587;28;20993;-83
2022/07/14 07:54:26;;;;;;;113.27;109.33;;;25.80;99.80;;;;;;5042165;28;20461;-82
2022/07/14 07:56:53;;;;;;;137.30;132.10;;;25.90;99.30;;;;;;5034593;28;20485;-81
2022/07/14 07:59:20;;;;;;;96.33;93.00;;;25.90;99.30;;;;;;5046487;28;20442;-81
2022/07/14 08:01:46;;;;;;;103.00;99.43;;;25.90;99.00;;;;;;5018939;28;20490;-84
2022/07/14 08:04:14;;;;;;;53.13;51.17;;;26.00;98.70;;;;;;5027621;28;20458;-82
2022/07/14 08:06:41;;;;;;;67.53;64.90;;;26.10;98.70;;;;;;5016154;28;20954;-83
2022/07/14 08:09:11;;;;;;;110.10;106.23;;;26.10;98.60;;;;;;5030868;28;20980;-82
2022/07/14 08:11:39;;;;;;;130.30;125.57;;;25.90;98.50;;;;;;5043914;28;20887;-83
2022/07/14 08:14:47;;;;;;;117.97;113.77;;;25.90;98.60;;;;;;5026015;28;20810;-81
2022/07/14 08:16:54;;;;;;;119.13;114.97;;;25.80;98.60;;;;;;5015309;28;20841;-82
2022/07/14 08:19:20;;;;;;;116.70;112.47;;;25.60;98.90;;;;;;5024825;28;20458;-81
2022/07/14 08:21:47;;;;;;;159.07;153.30;;;25.50;99.20;;;;;;5040439;28;20599;-83
2022/07/14 08:24:14;;;;;;;95.87;92.43;;;25.40;99.50;;;;;;5031354;28;20457;-83
2022/07/14 08:26:42;;;;;;;102.90;98.43;;;25.30;99.60;;;;;;5027826;28;20520;-84
2022/07/14 08:29:09;;;;;;;115.53;111.43;;;25.30;99.80;;;;;;5019520;28;20970;-83
2022/07/14 08:31:36;;;;;;;136.73;131.87;;;25.20;99.90;;;;;;5032619;28;20454;-83
2022/07/14 08:34:03;;;;;;;136.23;131.60;;;25.20;99.90;;;;;;5033639;28;20458;-80
2022/07/14 08:36:30;;;;;;;124.43;120.27;;;25.40;99.90;;;;;;5030259;28;20486;-85
2022/07/14 08:38:57;;;;;;;69.43;66.73;;;25.60;99.40;;;;;;5022077;28;20461;-84
2022/07/14 08:41:23;;;;;;;80.13;77.10;;;25.80;99.10;;;;;;5032330;28;20450;-82
2022/07/14 08:43:52;;;;;;;53.23;51.27;;;25.90;98.70;;;;;;5029391;28;20535;-81
2022/07/14 08:46:19;;;;;;;47.33;45.33;;;26.10;98.10;;;;;;5032027;28;20450;-82
2022/07/14 08:48:47;;;;;;;32.70;31.30;;;26.10;97.80;;;;;;5015312;28;20491;-83
2022/07/14 08:51:14;;;;;;;37.53;35.93;;;26.20;97.50;;;;;;5014278;28;20459;-84
2022/07/14 08:53:43;;;;;;;42.97;41.40;;;26.30;97.20;;;;;;5030969;28;20479;-82
2022/07/14 08:56:11;;;;;;;28.23;27.07;;;26.30;96.80;;;;;;5032493;28;20489;-83
2022/07/14 08:58:39;;;;;;;31.53;30.00;;;26.30;96.80;;;;;;5036780;28;21018;-83
2022/07/14 09:01:08;;;;;;;33.07;31.53;;;26.30;96.60;;;;;;5024820;28;20512;-83
2022/07/14 09:03:35;;;;;;;44.07;42.43;;;26.40;96.40;;;;;;5017063;28;20485;-83
2022/07/14 09:06:02;;;;;;;65.03;62.63;;;26.40;96.20;;;;;;5020983;28;20832;-82
2022/07/14 09:08:29;;;;;;;51.37;49.57;;;26.40;96.00;;;;;;5030859;28;20467;-81
2022/07/14 09:10:56;;;;;;;59.67;57.50;;;26.40;96.00;;;;;;5039605;28;20454;-82
2022/07/14 09:13:24;;;;;;;57.23;55.13;;;26.40;95.70;;;;;;5036343;28;20931;-84
2022/07/14 09:16:15;;;;;;;68.27;65.70;;;26.40;95.70;;;;;;5008424;28;20811;-83
2022/07/14 09:18:42;;;;;;;63.00;60.77;;;26.40;95.80;;;;;;5010746;28;20474;-83
2022/07/14 09:21:20;;;;;;;78.47;75.50;;;26.40;96.00;;;;;;5024719;28;21016;-83
2022/07/14 09:23:47;;;;;;;86.83;83.63;;;26.40;95.40;;;;;;5025995;28;20458;-81
2022/07/14 09:26:16;;;;;;;96.57;93.07;;;26.40;95.50;;;;;;5009038;28;20837;-82
2022/07/14 09:28:44;;;;;;;103.73;100.17;;;26.40;95.50;;;;;;5017260;28;20897;-81
2022/07/14 09:31:24;;;;;;;103.50;99.97;;;26.40;95.30;;;;;;5034003;28;20466;-83
2022/07/14 09:33:52;;;;;;;121.70;117.40;;;26.30;95.40;;;;;;5028892;28;20457;-82
2022/07/14 09:36:26;;;;;;;132.10;127.37;;;26.30;95.60;;;;;;5012497;28;20490;-82
2022/07/14 09:38:53;;;;;;;154.07;148.53;;;26.30;95.10;;;;;;5022617;28;20467;-83
2022/07/14 09:41:20;;;;;;;171.60;165.70;;;26.20;95.00;;;;;;5035610;28;20442;-83
2022/07/14 09:44:10;;;;;;;182.77;176.13;;;26.20;95.50;;;;;;5021602;28;20471;-83
2022/07/14 09:46:50;;;;;;;301.23;289.90;;;26.20;95.00;;;;;;5029352;28;20457;-80
2022/07/14 09:49:18;;;;;;;296.40;285.50;;;26.20;94.90;;;;;;5036741;28;20459;-83
2022/07/14 09:51:56;;;;;;;242.20;233.70;;;26.20;94.90;;;;;;5025751;28;20454;-82
2022/07/14 09:54:44;;;;;;;291.90;281.30;;;26.10;94.90;;;;;;5023061;28;20464;-84
2022/07/14 09:57:24;;;;;;;261.90;252.40;;;26.10;95.30;;;;;;5009357;28;20597;-82
2022/07/14 09:59:53;;;;;;;218.70;210.93;;;26.10;95.60;;;;;;5008773;28;20427;-81
2022/07/14 10:02:23;;;;;;;250.63;241.73;;;26.00;94.50;;;;;;5024982;28;20876;-84
2022/07/14 10:04:51;;;;;;;299.10;288.23;;;26.00;94.90;;;;;;5036392;28;20442;-81
2022/07/14 10:07:19;;;;;;;249.43;240.60;;;26.00;94.60;;;;;;5011174;28;21110;-83
2022/07/14 10:09:52;;;;;;;234.27;226.07;;;25.90;94.70;;;;;;5029925;28;20462;-83
2022/07/14 10:12:19;;;;;;;219.03;210.83;;;25.90;94.90;;;;;;5033589;28;20442;-82
2022/07/14 10:14:46;;;;;;;231.37;223.13;;;25.90;95.00;;;;;;5017619;28;20447;-84
2022/07/14 10:17:15;;;;;;;186.87;180.53;;;25.90;95.10;;;;;;5012980;28;20516;-83
2022/07/14 10:19:44;;;;;;;131.10;126.53;;;25.80;95.70;;;;;;5034295;28;20945;-84
2022/07/14 10:22:11;;;;;;;166.40;160.50;;;25.80;95.40;;;;;;5013661;28;20825;-84
2022/07/14 10:24:40;;;;;;;194.20;187.33;;;25.80;95.70;;;;;;5029852;28;20515;-83
2022/07/14 10:27:07;;;;;;;240.60;232.13;;;25.80;95.30;;;;;;5014180;28;20474;-84
2022/07/14 10:29:34;;;;;;;266.47;256.87;;;25.80;94.50;;;;;;5011782;28;20482;-82
2022/07/14 10:32:12;;;;;;;267.00;257.33;;;25.70;93.60;;;;;;5035912;28;21035;-82
2022/07/14 10:34:47;;;;;;;255.03;245.77;;;25.70;95.50;;;;;;5020440;28;20950;-82
2022/07/14 10:37:23;;;;;;;278.03;268.00;;;25.60;95.10;;;;;;5012170;28;20478;-84
2022/07/14 10:39:58;;;;;;;270.63;260.83;;;25.60;95.00;;;;;;5023149;28;20972;-84
2022/07/14 10:42:33;;;;;;;236.10;227.80;;;25.50;93.90;;;;;;5051074;28;20508;-84
2022/07/14 10:45:02;;;;;;;350.33;336.90;;;25.50;94.50;;;;;;5035329;28;20651;-84
2022/07/14 10:47:45;;;;;;;293.10;282.57;;;25.50;94.70;;;;;;5038857;28;20438;-82
2022/07/14 10:50:14;;;;;;;392.00;376.50;;;25.50;94.80;;;;;;5033557;28;20465;-84
2022/07/14 10:52:51;;;;;;;405.57;389.37;;;25.50;95.10;;;;;;5018522;28;20973;-82
2022/07/14 10:55:20;;;;;;;405.37;389.07;;;25.40;95.30;;;;;;5016831;28;20461;-84
2022/07/14 10:58:24;;;;;;;318.13;306.20;;;25.40;94.40;;;;;;5029202;28;20566;-81
2022/07/14 11:00:56;;;;;;;356.47;342.93;;;25.40;93.60;;;;;;5035165;28;20449;-83
2022/07/14 11:03:25;;;;;;;362.33;348.30;;;25.30;94.30;;;;;;5021565;28;21021;-83
2022/07/14 11:06:19;;;;;;;401.97;385.80;;;25.30;94.60;;;;;;5030371;28;20581;-82
2022/07/14 11:09:02;;;;;;;344.73;331.73;;;25.30;94.10;;;;;;5034069;28;20466;-82
2022/07/14 11:11:28;;;;;;;432.27;414.57;;;25.30;95.30;;;;;;5037718;28;20452;-83
2022/07/14 11:14:12;;;;;;;419.43;402.10;;;25.30;95.60;;;;;;5039850;28;20449;-82
2022/07/14 11:16:59;;;;;;;400.03;383.93;;;25.30;95.10;;;;;;5017197;28;20567;-83
2022/07/14 11:19:31;;;;;;;454.57;435.27;;;25.20;94.60;;;;;;5016662;28;20466;-83
2022/07/14 11:22:13;;;;;;;357.00;343.47;;;25.30;95.20;;;;;;5018243;28;20471;-82
2022/07/14 11:24:48;;;;;;;340.03;327.30;;;25.30;94.70;;;;;;5038764;28;20457;-84
2022/07/14 11:27:35;;;;;;;311.30;299.87;;;25.30;95.50;;;;;;5046279;28;20448;-82
2022/07/14 11:30:19;;;;;;;334.30;321.50;;;25.30;95.00;;;;;;5026427;28;20664;-82
2022/07/14 11:32:47;;;;;;;291.50;280.90;;;25.30;94.80;;;;;;5032214;28;20844;-84
2022/07/14 11:38:02;;;;;;;386.20;371.17;;;25.20;95.50;;;;;;5036797;28;20579;-81
2022/07/14 11:40:48;;;;;;;604.07;573.43;;;25.20;95.20;;;;;;5033119;28;20936;-83
2022/07/14 11:43:37;;;;;;;551.30;524.57;;;25.20;94.50;;;;;;5024934;28;20462;-83
2022/07/14 11:46:06;;;;;;;487.93;465.83;;;25.20;93.70;;;;;;5014381;28;20783;-82
2022/07/14 11:48:35;;;;;;;581.93;552.63;;;25.10;93.40;;;;;;5026629;28;20569;-85
2022/07/14 11:51:03;;;;;;;634.43;600.73;;;25.10;94.10;;;;;;5028157;28;20462;-82
2022/07/14 11:53:32;;;;;;;621.97;589.47;;;25.00;94.10;;;;;;5021453;28;20451;-83
2022/07/14 11:56:00;;;;;;;502.43;479.63;;;25.00;94.60;;;;;;5042103;28;20809;-83
2022/07/14 11:58:28;;;;;;;552.60;526.00;;;25.00;93.60;;;;;;5049266;28;20488;-83
2022/07/14 12:00:55;;;;;;;576.80;548.20;;;25.00;92.90;;;;;;5028326;28;20967;-83
2022/07/14 12:03:23;;;;;;;590.30;560.57;;;25.00;94.40;;;;;;5030952;28;20482;-81
2022/07/14 12:05:52;;;;;;;518.83;494.63;;;25.00;95.30;;;;;;5024295;28;20451;-82
2022/07/14 12:08:23;;;;;;;513.67;490.43;;;24.90;94.60;;;;;;5022111;28;20467;-84
2022/07/14 12:10:51;;;;;;;528.70;503.97;;;24.90;94.30;;;;;;5035821;28;20556;-85
2022/07/14 12:13:18;;;;;;;582.87;553.57;;;24.90;95.30;;;;;;5017770;28;21057;-85
2022/07/14 12:15:45;;;;;;;556.50;529.60;;;25.00;94.90;;;;;;5027269;28;20469;-84
2022/07/14 12:18:13;;;;;;;575.00;546.50;;;25.00;94.40;;;;;;5010960;28;20487;-83
2022/07/14 12:20:41;;;;;;;576.17;547.70;;;24.90;93.60;;;;;;5037109;28;20445;-82
2022/07/14 12:23:08;;;;;;;585.83;556.43;;;24.90;94.00;;;;;;5039493;28;20834;-83
2022/07/14 12:25:36;;;;;;;586.83;557.33;;;24.90;94.50;;;;;;5036775;28;20438;-85
2022/07/14 12:28:07;;;;;;;602.93;572.10;;;24.80;93.90;;;;;;5016706;28;20461;-83
2022/07/14 12:30:45;;;;;;;589.27;559.57;;;24.90;93.60;;;;;;5028590;28;20534;-84
2022/07/14 12:33:13;;;;;;;601.27;570.53;;;24.80;94.00;;;;;;5013595;28;20822;-84
2022/07/14 12:35:42;;;;;;;578.43;549.60;;;24.90;93.50;;;;;;5017846;28;20514;-83